sensor_id;sensor_type;location;lat;lon;timestamp;temperature;humidity
336;DHT22;156;48.738;9.228;2022-12-07T00:01:23;2.90;99.90
336;DHT22;156;48.738;9.228;2022-12-07T00:03:54;2.90;99.90
336;DHT22;156;48.738;9.228;2022-12-07T00:06:22;2.90;99.90
336;DHT22;156;48.738;9.228;2022-12-07T00:08:49;2.90;99.90
336;DHT22;156;48.738;9.228;2022-12-07T00:11:17;2.90;99.90
336;DHT22;156;48.738;9.228;2022-12-07T00:13:45;2.90;99.90
336;DHT22;156;48.738;9.228;2022-12-07T00:16:14;2.80;99.90
336;DHT22;156;48.738;9.228;2022-12-07T00:18:41;2.90;99.90
336;DHT22;156;48.738;9.228;2022-12-07T00:21:11;2.90;99.90
336;DHT22;156;48.738;9.228;2022-12-07T00:23:40;2.90;99.90
336;DHT22;156;48.738;9.228;2022-12-07T00:26:08;3.00;99.90
336;DHT22;156;48.738;9.228;2022-12-07T00:28:36;3.00;99.90
336;DHT22;156;48.738;9.228;2022-12-07T00:31:05;3.00;99.90
336;DHT22;156;48.738;9.228;2022-12-07T00:33:32;3.00;99.00
336;DHT22;156;48.738;9.228;2022-12-07T00:36:00;3.00;99.00
336;DHT22;156;48.738;9.228;2022-12-07T00:38:30;3.00;98.80
336;DHT22;156;48.738;9.228;2022-12-07T00:40:58;3.00;98.10
336;DHT22;156;48.738;9.228;2022-12-07T00:43:25;2.90;97.50
336;DHT22;156;48.738;9.228;2022-12-07T00:45:52;2.90;98.10
336;DHT22;156;48.738;9.228;2022-12-07T00:48:19;2.90;99.10
336;DHT22;156;48.738;9.228;2022-12-07T00:50:46;2.90;98.20
336;DHT22;156;48.738;9.228;2022-12-07T00:53:14;3.00;97.90
336;DHT22;156;48.738;9.228;2022-12-07T00:55:43;2.90;97.50
336;DHT22;156;48.738;9.228;2022-12-07T00:58:10;2.90;96.10
336;DHT22;156;48.738;9.228;2022-12-07T01:00:38;2.90;95.70
336;DHT22;156;48.738;9.228;2022-12-07T01:03:06;3.00;94.20
336;DHT22;156;48.738;9.228;2022-12-07T01:05:33;3.00;93.30
336;DHT22;156;48.738;9.228;2022-12-07T01:08:01;2.90;92.20
336;DHT22;156;48.738;9.228;2022-12-07T01:10:28;2.90;92.00
336;DHT22;156;48.738;9.228;2022-12-07T01:12:57;2.80;92.00
336;DHT22;156;48.738;9.228;2022-12-07T01:15:25;2.80;91.80
336;DHT22;156;48.738;9.228;2022-12-07T01:17:52;2.90;92.00
336;DHT22;156;48.738;9.228;2022-12-07T01:20:20;2.80;91.10
336;DHT22;156;48.738;9.228;2022-12-07T01:22:47;2.70;90.60
336;DHT22;156;48.738;9.228;2022-12-07T01:25:14;2.80;91.20
336;DHT22;156;48.738;9.228;2022-12-07T01:27:40;2.80;90.20
336;DHT22;156;48.738;9.228;2022-12-07T01:30:11;2.70;87.50
336;DHT22;156;48.738;9.228;2022-12-07T01:32:38;2.80;90.90
336;DHT22;156;48.738;9.228;2022-12-07T01:35:06;2.70;86.70
336;DHT22;156;48.738;9.228;2022-12-07T01:37:34;2.70;85.40
336;DHT22;156;48.738;9.228;2022-12-07T01:40:03;2.70;85.40
336;DHT22;156;48.738;9.228;2022-12-07T01:42:30;2.70;85.50
336;DHT22;156;48.738;9.228;2022-12-07T01:48:10;2.70;81.50
336;DHT22;156;48.738;9.228;2022-12-07T01:50:38;2.70;81.30
336;DHT22;156;48.738;9.228;2022-12-07T01:53:09;2.60;80.80
336;DHT22;156;48.738;9.228;2022-12-07T01:55:40;2.70;79.90
336;DHT22;156;48.738;9.228;2022-12-07T01:58:09;2.70;76.50
336;DHT22;156;48.738;9.228;2022-12-07T02:00:37;2.70;74.30
336;DHT22;156;48.738;9.228;2022-12-07T02:03:08;2.70;74.40
336;DHT22;156;48.738;9.228;2022-12-07T02:05:37;2.70;77.10
336;DHT22;156;48.738;9.228;2022-12-07T02:08:04;2.60;74.20
336;DHT22;156;48.738;9.228;2022-12-07T02:10:32;2.60;75.60
336;DHT22;156;48.738;9.228;2022-12-07T02:13:03;2.60;76.50
336;DHT22;156;48.738;9.228;2022-12-07T02:15:50;2.60;78.50
336;DHT22;156;48.738;9.228;2022-12-07T02:18:25;2.60;76.80
336;DHT22;156;48.738;9.228;2022-12-07T02:20:58;2.60;78.60
336;DHT22;156;48.738;9.228;2022-12-07T02:23:51;2.60;80.20
336;DHT22;156;48.738;9.228;2022-12-07T02:26:54;2.60;80.70
336;DHT22;156;48.738;9.228;2022-12-07T02:29:28;2.60;81.40
336;DHT22;156;48.738;9.228;2022-12-07T02:32:03;2.60;81.70
336;DHT22;156;48.738;9.228;2022-12-07T02:34:42;2.60;80.50
336;DHT22;156;48.738;9.228;2022-12-07T02:37:19;2.60;80.60
336;DHT22;156;48.738;9.228;2022-12-07T02:39:52;2.60;79.60
336;DHT22;156;48.738;9.228;2022-12-07T02:42:25;2.60;79.70
336;DHT22;156;48.738;9.228;2022-12-07T02:44:55;2.60;75.60
336;DHT22;156;48.738;9.228;2022-12-07T02:47:24;2.50;75.80
336;DHT22;156;48.738;9.228;2022-12-07T02:49:51;2.70;75.50
336;DHT22;156;48.738;9.228;2022-12-07T02:52:18;2.70;72.50
336;DHT22;156;48.738;9.228;2022-12-07T02:54:45;2.60;73.20
336;DHT22;156;48.738;9.228;2022-12-07T02:57:27;2.70;71.90
336;DHT22;156;48.738;9.228;2022-12-07T03:00:04;2.70;72.00
336;DHT22;156;48.738;9.228;2022-12-07T03:02:38;2.70;71.80
336;DHT22;156;48.738;9.228;2022-12-07T03:08:15;2.70;70.90
336;DHT22;156;48.738;9.228;2022-12-07T03:10:54;2.70;72.00
336;DHT22;156;48.738;9.228;2022-12-07T03:13:30;2.70;70.90
336;DHT22;156;48.738;9.228;2022-12-07T03:16:04;2.70;72.00
336;DHT22;156;48.738;9.228;2022-12-07T03:18:37;2.70;69.90
336;DHT22;156;48.738;9.228;2022-12-07T03:21:08;2.60;73.60
336;DHT22;156;48.738;9.228;2022-12-07T03:23:37;2.60;70.60
336;DHT22;156;48.738;9.228;2022-12-07T03:26:08;2.50;72.90
336;DHT22;156;48.738;9.228;2022-12-07T03:28:39;2.60;73.00
336;DHT22;156;48.738;9.228;2022-12-07T03:31:12;2.60;73.70
336;DHT22;156;48.738;9.228;2022-12-07T03:33:47;2.50;73.70
336;DHT22;156;48.738;9.228;2022-12-07T03:36:21;2.50;76.90
336;DHT22;156;48.738;9.228;2022-12-07T03:38:55;2.50;76.50
336;DHT22;156;48.738;9.228;2022-12-07T03:41:25;2.50;73.30
336;DHT22;156;48.738;9.228;2022-12-07T03:43:54;2.50;73.20
336;DHT22;156;48.738;9.228;2022-12-07T03:46:29;2.60;74.00
336;DHT22;156;48.738;9.228;2022-12-07T03:49:04;2.60;72.10
336;DHT22;156;48.738;9.228;2022-12-07T03:51:38;2.60;71.20
336;DHT22;156;48.738;9.228;2022-12-07T03:54:11;2.50;72.00
336;DHT22;156;48.738;9.228;2022-12-07T03:56:40;2.50;74.40
336;DHT22;156;48.738;9.228;2022-12-07T03:59:09;2.50;75.60
336;DHT22;156;48.738;9.228;2022-12-07T04:01:37;2.50;70.80
336;DHT22;156;48.738;9.228;2022-12-07T04:04:04;2.50;69.40
336;DHT22;156;48.738;9.228;2022-12-07T04:06:31;2.50;69.50
336;DHT22;156;48.738;9.228;2022-12-07T04:08:58;2.50;70.20
336;DHT22;156;48.738;9.228;2022-12-07T04:11:25;2.50;66.90
336;DHT22;156;48.738;9.228;2022-12-07T04:13:52;2.50;65.20
336;DHT22;156;48.738;9.228;2022-12-07T04:16:37;2.50;62.20
336;DHT22;156;48.738;9.228;2022-12-07T04:19:04;2.50;61.60
336;DHT22;156;48.738;9.228;2022-12-07T04:21:31;2.40;61.50
336;DHT22;156;48.738;9.228;2022-12-07T04:23:58;2.50;60.30
336;DHT22;156;48.738;9.228;2022-12-07T04:26:25;2.50;59.10
336;DHT22;156;48.738;9.228;2022-12-07T04:28:51;2.40;57.70
336;DHT22;156;48.738;9.228;2022-12-07T04:31:18;2.50;57.30
336;DHT22;156;48.738;9.228;2022-12-07T04:33:46;2.50;54.60
336;DHT22;156;48.738;9.228;2022-12-07T04:36:13;2.50;52.70
336;DHT22;156;48.738;9.228;2022-12-07T04:38:43;2.60;54.10
336;DHT22;156;48.738;9.228;2022-12-07T04:41:10;2.70;49.30
336;DHT22;156;48.738;9.228;2022-12-07T04:43:37;2.60;43.60
336;DHT22;156;48.738;9.228;2022-12-07T04:46:04;2.40;43.40
336;DHT22;156;48.738;9.228;2022-12-07T04:48:31;2.40;40.50
336;DHT22;156;48.738;9.228;2022-12-07T04:50:59;2.40;40.40
336;DHT22;156;48.738;9.228;2022-12-07T04:53:26;2.30;42.60
336;DHT22;156;48.738;9.228;2022-12-07T04:55:53;2.20;14.70
336;DHT22;156;48.738;9.228;2022-12-07T04:58:20;2.30;12.00
336;DHT22;156;48.738;9.228;2022-12-07T05:00:47;2.40;5.20
336;DHT22;156;48.738;9.228;2022-12-07T05:03:13;2.60;5.00
336;DHT22;156;48.738;9.228;2022-12-07T05:05:40;2.60;2.70
336;DHT22;156;48.738;9.228;2022-12-07T05:08:09;2.70;1.00
336;DHT22;156;48.738;9.228;2022-12-07T05:10:36;2.70;1.00
336;DHT22;156;48.738;9.228;2022-12-07T05:13:03;2.80;1.00
336;DHT22;156;48.738;9.228;2022-12-07T05:15:29;2.80;1.00
336;DHT22;156;48.738;9.228;2022-12-07T05:17:56;2.80;1.00
336;DHT22;156;48.738;9.228;2022-12-07T05:20:23;2.80;1.00
336;DHT22;156;48.738;9.228;2022-12-07T05:22:50;2.80;1.00
336;DHT22;156;48.738;9.228;2022-12-07T05:25:18;2.90;1.00
336;DHT22;156;48.738;9.228;2022-12-07T05:27:45;2.90;1.00
336;DHT22;156;48.738;9.228;2022-12-07T05:30:15;2.90;1.00
336;DHT22;156;48.738;9.228;2022-12-07T05:32:42;3.00;1.00
336;DHT22;156;48.738;9.228;2022-12-07T05:35:09;3.00;1.00
336;DHT22;156;48.738;9.228;2022-12-07T05:37:36;2.80;1.00
336;DHT22;156;48.738;9.228;2022-12-07T05:40:04;2.70;1.00
336;DHT22;156;48.738;9.228;2022-12-07T05:42:32;2.50;1.00
336;DHT22;156;48.738;9.228;2022-12-07T05:44:58;2.40;1.00
336;DHT22;156;48.738;9.228;2022-12-07T05:47:25;2.40;1.00
336;DHT22;156;48.738;9.228;2022-12-07T05:49:52;2.30;1.00
336;DHT22;156;48.738;9.228;2022-12-07T05:52:19;2.20;1.00
336;DHT22;156;48.738;9.228;2022-12-07T05:54:46;2.10;1.00
336;DHT22;156;48.738;9.228;2022-12-07T05:57:13;2.00;1.00
336;DHT22;156;48.738;9.228;2022-12-07T05:59:41;1.90;1.00
336;DHT22;156;48.738;9.228;2022-12-07T06:02:09;1.80;1.00
336;DHT22;156;48.738;9.228;2022-12-07T06:04:37;1.80;1.00
336;DHT22;156;48.738;9.228;2022-12-07T06:07:05;1.70;9.10
336;DHT22;156;48.738;9.228;2022-12-07T06:09:32;1.70;15.40
336;DHT22;156;48.738;9.228;2022-12-07T06:12:00;1.70;19.20
336;DHT22;156;48.738;9.228;2022-12-07T06:14:46;1.70;21.90
336;DHT22;156;48.738;9.228;2022-12-07T06:17:13;1.70;24.90
336;DHT22;156;48.738;9.228;2022-12-07T06:19:40;1.70;26.60
336;DHT22;156;48.738;9.228;2022-12-07T06:22:07;1.70;28.90
336;DHT22;156;48.738;9.228;2022-12-07T06:24:34;1.70;30.90
336;DHT22;156;48.738;9.228;2022-12-07T06:27:02;1.70;33.10
336;DHT22;156;48.738;9.228;2022-12-07T06:29:28;1.70;34.60
336;DHT22;156;48.738;9.228;2022-12-07T06:31:57;1.70;35.80
336;DHT22;156;48.738;9.228;2022-12-07T06:34:24;1.80;38.30
336;DHT22;156;48.738;9.228;2022-12-07T06:36:52;1.80;38.20
336;DHT22;156;48.738;9.228;2022-12-07T06:39:22;1.90;36.40
336;DHT22;156;48.738;9.228;2022-12-07T06:41:50;1.90;33.70
336;DHT22;156;48.738;9.228;2022-12-07T06:44:18;2.00;22.70
336;DHT22;156;48.738;9.228;2022-12-07T06:46:45;2.00;17.50
336;DHT22;156;48.738;9.228;2022-12-07T06:49:14;2.20;5.90
336;DHT22;156;48.738;9.228;2022-12-07T06:51:41;2.30;4.90
336;DHT22;156;48.738;9.228;2022-12-07T06:54:09;2.40;1.90
336;DHT22;156;48.738;9.228;2022-12-07T06:56:36;2.30;4.50
336;DHT22;156;48.738;9.228;2022-12-07T06:59:03;2.20;9.10
336;DHT22;156;48.738;9.228;2022-12-07T07:01:31;2.00;11.20
336;DHT22;156;48.738;9.228;2022-12-07T07:03:58;2.10;12.20
336;DHT22;156;48.738;9.228;2022-12-07T07:06:26;2.10;10.60
336;DHT22;156;48.738;9.228;2022-12-07T07:08:53;2.20;9.40
336;DHT22;156;48.738;9.228;2022-12-07T07:11:20;2.20;8.70
336;DHT22;156;48.738;9.228;2022-12-07T07:13:47;2.40;3.80
336;DHT22;156;48.738;9.228;2022-12-07T07:16:14;2.40;1.00
336;DHT22;156;48.738;9.228;2022-12-07T07:18:40;2.40;1.00
336;DHT22;156;48.738;9.228;2022-12-07T07:21:07;2.30;1.00
336;DHT22;156;48.738;9.228;2022-12-07T07:23:36;2.30;1.00
336;DHT22;156;48.738;9.228;2022-12-07T07:26:03;2.20;1.00
336;DHT22;156;48.738;9.228;2022-12-07T07:28:29;2.20;1.00
336;DHT22;156;48.738;9.228;2022-12-07T07:30:56;2.20;1.00
336;DHT22;156;48.738;9.228;2022-12-07T07:33:23;2.20;1.00
336;DHT22;156;48.738;9.228;2022-12-07T07:35:50;2.20;2.00
336;DHT22;156;48.738;9.228;2022-12-07T07:38:17;2.20;4.30
336;DHT22;156;48.738;9.228;2022-12-07T07:40:45;2.20;3.30
336;DHT22;156;48.738;9.228;2022-12-07T07:43:12;2.30;4.40
336;DHT22;156;48.738;9.228;2022-12-07T07:45:39;2.30;5.50
336;DHT22;156;48.738;9.228;2022-12-07T07:48:06;2.40;6.30
336;DHT22;156;48.738;9.228;2022-12-07T07:50:33;2.30;6.70
336;DHT22;156;48.738;9.228;2022-12-07T07:53:00;2.30;9.10
336;DHT22;156;48.738;9.228;2022-12-07T07:55:26;2.30;12.90
336;DHT22;156;48.738;9.228;2022-12-07T07:57:55;2.30;15.50
336;DHT22;156;48.738;9.228;2022-12-07T08:00:22;2.40;17.70
336;DHT22;156;48.738;9.228;2022-12-07T08:02:49;2.20;20.80
336;DHT22;156;48.738;9.228;2022-12-07T08:05:16;2.20;24.20
336;DHT22;156;48.738;9.228;2022-12-07T08:07:43;2.20;25.70
336;DHT22;156;48.738;9.228;2022-12-07T08:10:11;2.30;23.90
336;DHT22;156;48.738;9.228;2022-12-07T08:12:39;2.30;25.70
336;DHT22;156;48.738;9.228;2022-12-07T08:15:30;2.40;27.70
336;DHT22;156;48.738;9.228;2022-12-07T08:17:57;2.40;27.60
336;DHT22;156;48.738;9.228;2022-12-07T08:20:24;2.50;25.60
336;DHT22;156;48.738;9.228;2022-12-07T08:22:51;2.50;25.70
336;DHT22;156;48.738;9.228;2022-12-07T08:25:18;2.40;26.10
336;DHT22;156;48.738;9.228;2022-12-07T08:27:45;2.50;27.30
336;DHT22;156;48.738;9.228;2022-12-07T08:30:12;2.40;28.40
336;DHT22;156;48.738;9.228;2022-12-07T08:32:41;2.40;31.90
336;DHT22;156;48.738;9.228;2022-12-07T08:35:08;2.30;34.20
336;DHT22;156;48.738;9.228;2022-12-07T08:37:36;2.40;36.60
336;DHT22;156;48.738;9.228;2022-12-07T08:40:03;2.50;37.50
336;DHT22;156;48.738;9.228;2022-12-07T08:42:30;2.60;32.40
336;DHT22;156;48.738;9.228;2022-12-07T08:45:04;2.60;34.00
336;DHT22;156;48.738;9.228;2022-12-07T08:47:32;2.50;31.70
336;DHT22;156;48.738;9.228;2022-12-07T08:50:01;2.60;29.40
336;DHT22;156;48.738;9.228;2022-12-07T08:52:29;2.50;27.20
336;DHT22;156;48.738;9.228;2022-12-07T08:54:56;2.50;27.20
336;DHT22;156;48.738;9.228;2022-12-07T08:57:24;2.50;26.00
336;DHT22;156;48.738;9.228;2022-12-07T08:59:51;2.60;24.20
336;DHT22;156;48.738;9.228;2022-12-07T09:02:18;2.80;19.10
336;DHT22;156;48.738;9.228;2022-12-07T09:04:45;2.90;16.20
336;DHT22;156;48.738;9.228;2022-12-07T09:07:13;2.90;9.80
336;DHT22;156;48.738;9.228;2022-12-07T09:09:40;3.00;8.20
336;DHT22;156;48.738;9.228;2022-12-07T09:12:07;3.10;5.00
336;DHT22;156;48.738;9.228;2022-12-07T09:14:35;3.20;1.70
336;DHT22;156;48.738;9.228;2022-12-07T09:17:06;3.10;1.00
336;DHT22;156;48.738;9.228;2022-12-07T09:19:33;3.20;1.00
336;DHT22;156;48.738;9.228;2022-12-07T09:22:01;3.30;1.00
336;DHT22;156;48.738;9.228;2022-12-07T09:24:29;3.40;1.00
336;DHT22;156;48.738;9.228;2022-12-07T09:26:57;3.20;1.00
336;DHT22;156;48.738;9.228;2022-12-07T09:29:23;3.30;1.00
336;DHT22;156;48.738;9.228;2022-12-07T09:31:50;3.50;1.00
336;DHT22;156;48.738;9.228;2022-12-07T09:34:18;3.50;1.00
336;DHT22;156;48.738;9.228;2022-12-07T09:36:45;3.50;1.00
336;DHT22;156;48.738;9.228;2022-12-07T09:39:12;3.60;1.00
336;DHT22;156;48.738;9.228;2022-12-07T09:41:42;3.50;1.00
336;DHT22;156;48.738;9.228;2022-12-07T09:44:13;3.50;1.00
336;DHT22;156;48.738;9.228;2022-12-07T09:46:42;3.60;1.00
336;DHT22;156;48.738;9.228;2022-12-07T09:49:12;3.60;1.00
336;DHT22;156;48.738;9.228;2022-12-07T09:51:41;3.80;1.00
336;DHT22;156;48.738;9.228;2022-12-07T09:54:09;4.00;1.00
336;DHT22;156;48.738;9.228;2022-12-07T09:56:40;4.10;1.00
336;DHT22;156;48.738;9.228;2022-12-07T09:59:13;4.10;1.00
336;DHT22;156;48.738;9.228;2022-12-07T10:01:42;4.20;1.00
336;DHT22;156;48.738;9.228;2022-12-07T10:04:12;4.20;1.00
336;DHT22;156;48.738;9.228;2022-12-07T10:06:41;4.30;1.00
336;DHT22;156;48.738;9.228;2022-12-07T10:09:10;4.40;1.00
336;DHT22;156;48.738;9.228;2022-12-07T10:12:03;4.30;1.00
336;DHT22;156;48.738;9.228;2022-12-07T10:14:33;4.20;1.00
336;DHT22;156;48.738;9.228;2022-12-07T10:17:00;4.20;1.00
336;DHT22;156;48.738;9.228;2022-12-07T10:19:29;4.30;1.00
336;DHT22;156;48.738;9.228;2022-12-07T10:22:02;4.50;1.00
336;DHT22;156;48.738;9.228;2022-12-07T10:24:29;4.50;1.00
336;DHT22;156;48.738;9.228;2022-12-07T10:26:57;4.50;1.00
336;DHT22;156;48.738;9.228;2022-12-07T10:29:30;4.60;1.00
336;DHT22;156;48.738;9.228;2022-12-07T10:31:59;4.70;1.00
336;DHT22;156;48.738;9.228;2022-12-07T10:34:28;4.30;1.00
336;DHT22;156;48.738;9.228;2022-12-07T10:37:14;4.60;1.00
336;DHT22;156;48.738;9.228;2022-12-07T10:39:42;4.80;1.00
336;DHT22;156;48.738;9.228;2022-12-07T10:42:16;4.90;1.00
336;DHT22;156;48.738;9.228;2022-12-07T10:44:45;4.80;1.00
336;DHT22;156;48.738;9.228;2022-12-07T10:47:23;4.70;1.00
336;DHT22;156;48.738;9.228;2022-12-07T10:56:03;4.80;1.00
336;DHT22;156;48.738;9.228;2022-12-07T10:58:49;4.90;1.00
336;DHT22;156;48.738;9.228;2022-12-07T11:01:25;4.70;1.00
336;DHT22;156;48.738;9.228;2022-12-07T11:04:21;4.80;1.00
336;DHT22;156;48.738;9.228;2022-12-07T11:06:55;4.70;1.00
336;DHT22;156;48.738;9.228;2022-12-07T11:09:44;4.60;1.00
336;DHT22;156;48.738;9.228;2022-12-07T11:12:16;4.30;1.00
336;DHT22;156;48.738;9.228;2022-12-07T11:14:54;4.30;1.00
336;DHT22;156;48.738;9.228;2022-12-07T11:17:28;4.10;1.00
336;DHT22;156;48.738;9.228;2022-12-07T11:20:11;4.20;1.00
336;DHT22;156;48.738;9.228;2022-12-07T11:22:47;4.20;1.00
336;DHT22;156;48.738;9.228;2022-12-07T11:25:23;4.20;1.00
336;DHT22;156;48.738;9.228;2022-12-07T11:28:03;4.30;1.00
336;DHT22;156;48.738;9.228;2022-12-07T11:30:36;4.20;1.00
336;DHT22;156;48.738;9.228;2022-12-07T11:33:13;4.30;1.00
336;DHT22;156;48.738;9.228;2022-12-07T11:35:53;4.30;1.00
336;DHT22;156;48.738;9.228;2022-12-07T11:38:23;4.20;1.00
336;DHT22;156;48.738;9.228;2022-12-07T11:40:56;4.10;1.00
336;DHT22;156;48.738;9.228;2022-12-07T11:43:50;4.10;1.00
336;DHT22;156;48.738;9.228;2022-12-07T11:46:22;4.20;1.00
336;DHT22;156;48.738;9.228;2022-12-07T11:48:57;4.20;1.00
336;DHT22;156;48.738;9.228;2022-12-07T11:51:25;4.30;1.00
336;DHT22;156;48.738;9.228;2022-12-07T11:53:56;4.40;1.00
336;DHT22;156;48.738;9.228;2022-12-07T11:56:27;4.30;1.00
336;DHT22;156;48.738;9.228;2022-12-07T11:58:57;4.40;1.00
336;DHT22;156;48.738;9.228;2022-12-07T12:01:31;4.50;1.00
336;DHT22;156;48.738;9.228;2022-12-07T12:04:07;4.60;1.00
336;DHT22;156;48.738;9.228;2022-12-07T12:06:42;4.60;1.00
336;DHT22;156;48.738;9.228;2022-12-07T12:09:13;4.70;1.00
336;DHT22;156;48.738;9.228;2022-12-07T12:11:54;4.60;1.00
336;DHT22;156;48.738;9.228;2022-12-07T12:14:37;4.40;1.00
336;DHT22;156;48.738;9.228;2022-12-07T12:17:22;4.50;1.00
336;DHT22;156;48.738;9.228;2022-12-07T12:20:01;4.50;1.00
336;DHT22;156;48.738;9.228;2022-12-07T12:22:34;4.40;1.00
336;DHT22;156;48.738;9.228;2022-12-07T12:25:05;4.20;1.00
336;DHT22;156;48.738;9.228;2022-12-07T12:27:34;4.20;1.00
336;DHT22;156;48.738;9.228;2022-12-07T12:30:04;4.20;1.00
336;DHT22;156;48.738;9.228;2022-12-07T12:32:37;4.20;1.00
336;DHT22;156;48.738;9.228;2022-12-07T12:35:28;4.30;1.00
336;DHT22;156;48.738;9.228;2022-12-07T12:38:26;4.40;1.00
336;DHT22;156;48.738;9.228;2022-12-07T12:40:54;4.30;1.00
336;DHT22;156;48.738;9.228;2022-12-07T12:43:41;4.20;1.00
336;DHT22;156;48.738;9.228;2022-12-07T12:46:37;4.10;1.00
336;DHT22;156;48.738;9.228;2022-12-07T12:58:36;4.10;1.00
336;DHT22;156;48.738;9.228;2022-12-07T13:01:35;3.90;1.00
336;DHT22;156;48.738;9.228;2022-12-07T13:04:17;3.90;1.00
336;DHT22;156;48.738;9.228;2022-12-07T13:06:46;3.90;2.10
336;DHT22;156;48.738;9.228;2022-12-07T13:09:20;3.80;1.00
336;DHT22;156;48.738;9.228;2022-12-07T13:11:54;3.70;1.50
336;DHT22;156;48.738;9.228;2022-12-07T13:18:01;3.80;2.10
336;DHT22;156;48.738;9.228;2022-12-07T13:20:56;3.80;1.00
336;DHT22;156;48.738;9.228;2022-12-07T13:23:29;3.90;1.00
336;DHT22;156;48.738;9.228;2022-12-07T13:26:15;3.90;1.00
336;DHT22;156;48.738;9.228;2022-12-07T13:28:45;3.80;1.00
336;DHT22;156;48.738;9.228;2022-12-07T13:31:34;3.90;1.00
336;DHT22;156;48.738;9.228;2022-12-07T13:34:02;3.80;1.00
336;DHT22;156;48.738;9.228;2022-12-07T13:36:31;3.90;1.00
336;DHT22;156;48.738;9.228;2022-12-07T13:39:18;3.90;1.00
336;DHT22;156;48.738;9.228;2022-12-07T13:41:49;4.00;1.00
336;DHT22;156;48.738;9.228;2022-12-07T13:44:20;4.00;1.00
336;DHT22;156;48.738;9.228;2022-12-07T13:46:51;4.10;1.00
336;DHT22;156;48.738;9.228;2022-12-07T13:49:22;4.00;1.00
336;DHT22;156;48.738;9.228;2022-12-07T13:51:49;4.00;1.00
336;DHT22;156;48.738;9.228;2022-12-07T13:54:17;4.00;1.00
336;DHT22;156;48.738;9.228;2022-12-07T13:56:47;4.00;1.00
336;DHT22;156;48.738;9.228;2022-12-07T13:59:18;4.00;1.00
336;DHT22;156;48.738;9.228;2022-12-07T14:01:47;4.00;1.00
336;DHT22;156;48.738;9.228;2022-12-07T14:04:33;4.00;1.00
336;DHT22;156;48.738;9.228;2022-12-07T14:07:21;4.00;1.00
336;DHT22;156;48.738;9.228;2022-12-07T14:09:58;4.00;1.00
336;DHT22;156;48.738;9.228;2022-12-07T14:12:27;4.00;1.00
336;DHT22;156;48.738;9.228;2022-12-07T14:14:56;4.00;1.00
336;DHT22;156;48.738;9.228;2022-12-07T14:17:25;4.00;1.00
336;DHT22;156;48.738;9.228;2022-12-07T14:19:53;3.90;1.00
336;DHT22;156;48.738;9.228;2022-12-07T14:22:33;3.90;1.00
336;DHT22;156;48.738;9.228;2022-12-07T14:25:20;3.90;1.00
336;DHT22;156;48.738;9.228;2022-12-07T14:27:58;3.90;1.00
336;DHT22;156;48.738;9.228;2022-12-07T14:30:28;3.90;1.00
336;DHT22;156;48.738;9.228;2022-12-07T14:32:58;4.00;1.00
336;DHT22;156;48.738;9.228;2022-12-07T14:35:26;3.90;1.00
336;DHT22;156;48.738;9.228;2022-12-07T14:37:53;4.00;1.00
336;DHT22;156;48.738;9.228;2022-12-07T14:40:22;4.00;1.00
336;DHT22;156;48.738;9.228;2022-12-07T14:42:53;4.00;1.00
336;DHT22;156;48.738;9.228;2022-12-07T14:45:22;4.00;1.00
336;DHT22;156;48.738;9.228;2022-12-07T14:47:51;3.90;1.00
336;DHT22;156;48.738;9.228;2022-12-07T14:50:19;4.00;1.00
336;DHT22;156;48.738;9.228;2022-12-07T14:52:49;4.10;1.00
336;DHT22;156;48.738;9.228;2022-12-07T14:55:23;4.10;1.00
336;DHT22;156;48.738;9.228;2022-12-07T14:57:50;4.10;1.00
336;DHT22;156;48.738;9.228;2022-12-07T15:00:18;4.10;1.00
336;DHT22;156;48.738;9.228;2022-12-07T15:02:46;4.10;1.00
336;DHT22;156;48.738;9.228;2022-12-07T15:05:15;4.10;1.00
336;DHT22;156;48.738;9.228;2022-12-07T15:07:42;4.00;1.00
336;DHT22;156;48.738;9.228;2022-12-07T15:10:16;3.90;1.00
336;DHT22;156;48.738;9.228;2022-12-07T15:12:43;4.00;1.00
336;DHT22;156;48.738;9.228;2022-12-07T15:15:11;3.80;1.00
336;DHT22;156;48.738;9.228;2022-12-07T15:17:38;3.80;1.00
336;DHT22;156;48.738;9.228;2022-12-07T15:20:07;3.70;1.00
336;DHT22;156;48.738;9.228;2022-12-07T15:22:37;3.70;1.00
336;DHT22;156;48.738;9.228;2022-12-07T15:25:04;3.70;1.00
336;DHT22;156;48.738;9.228;2022-12-07T15:27:31;3.70;1.00
336;DHT22;156;48.738;9.228;2022-12-07T15:29:58;3.70;1.00
336;DHT22;156;48.738;9.228;2022-12-07T15:32:25;3.70;1.00
336;DHT22;156;48.738;9.228;2022-12-07T15:34:52;3.70;1.00
336;DHT22;156;48.738;9.228;2022-12-07T15:37:19;3.70;1.00
336;DHT22;156;48.738;9.228;2022-12-07T15:39:47;3.70;1.00
336;DHT22;156;48.738;9.228;2022-12-07T15:42:14;3.60;1.00
336;DHT22;156;48.738;9.228;2022-12-07T15:44:41;3.60;1.00
336;DHT22;156;48.738;9.228;2022-12-07T15:47:25;3.60;1.00
336;DHT22;156;48.738;9.228;2022-12-07T15:49:52;3.50;1.00
336;DHT22;156;48.738;9.228;2022-12-07T15:52:19;3.60;1.00
336;DHT22;156;48.738;9.228;2022-12-07T15:54:47;3.60;1.00
336;DHT22;156;48.738;9.228;2022-12-07T15:57:14;3.60;1.00
336;DHT22;156;48.738;9.228;2022-12-07T15:59:41;3.50;1.00
336;DHT22;156;48.738;9.228;2022-12-07T16:04:41;3.30;1.00
336;DHT22;156;48.738;9.228;2022-12-07T16:07:08;3.20;1.00
336;DHT22;156;48.738;9.228;2022-12-07T16:09:36;3.20;1.00
336;DHT22;156;48.738;9.228;2022-12-07T16:12:05;3.30;1.00
336;DHT22;156;48.738;9.228;2022-12-07T16:14:32;3.20;1.00
336;DHT22;156;48.738;9.228;2022-12-07T16:16:59;3.20;1.00
336;DHT22;156;48.738;9.228;2022-12-07T16:19:26;3.30;1.00
336;DHT22;156;48.738;9.228;2022-12-07T16:21:53;3.30;1.00
336;DHT22;156;48.738;9.228;2022-12-07T16:24:20;3.20;1.00
336;DHT22;156;48.738;9.228;2022-12-07T16:26:47;3.30;1.00
336;DHT22;156;48.738;9.228;2022-12-07T16:29:17;3.20;1.00
336;DHT22;156;48.738;9.228;2022-12-07T16:31:45;3.10;1.00
336;DHT22;156;48.738;9.228;2022-12-07T16:34:12;3.10;1.00
336;DHT22;156;48.738;9.228;2022-12-07T16:36:39;3.00;1.00
336;DHT22;156;48.738;9.228;2022-12-07T16:39:06;3.10;1.00
336;DHT22;156;48.738;9.228;2022-12-07T16:41:33;3.00;1.00
336;DHT22;156;48.738;9.228;2022-12-07T16:44:02;3.00;1.00
336;DHT22;156;48.738;9.228;2022-12-07T16:46:31;3.00;1.00
336;DHT22;156;48.738;9.228;2022-12-07T16:48:58;3.00;1.00
336;DHT22;156;48.738;9.228;2022-12-07T16:51:25;2.90;1.00
336;DHT22;156;48.738;9.228;2022-12-07T16:53:53;2.90;1.00
336;DHT22;156;48.738;9.228;2022-12-07T16:56:20;2.90;1.00
336;DHT22;156;48.738;9.228;2022-12-07T16:58:47;2.90;1.00
336;DHT22;156;48.738;9.228;2022-12-07T17:01:16;2.80;1.00
336;DHT22;156;48.738;9.228;2022-12-07T17:03:45;2.80;1.00
336;DHT22;156;48.738;9.228;2022-12-07T17:06:13;2.80;1.00
336;DHT22;156;48.738;9.228;2022-12-07T17:08:41;2.70;1.00
336;DHT22;156;48.738;9.228;2022-12-07T17:11:12;2.70;1.00
336;DHT22;156;48.738;9.228;2022-12-07T17:13:39;2.70;1.00
336;DHT22;156;48.738;9.228;2022-12-07T17:16:23;2.70;1.90
336;DHT22;156;48.738;9.228;2022-12-07T17:18:51;2.70;2.80
336;DHT22;156;48.738;9.228;2022-12-07T17:21:19;2.70;4.70
336;DHT22;156;48.738;9.228;2022-12-07T17:23:46;2.60;5.80
336;DHT22;156;48.738;9.228;2022-12-07T17:26:15;2.70;9.70
336;DHT22;156;48.738;9.228;2022-12-07T17:28:43;2.70;7.30
336;DHT22;156;48.738;9.228;2022-12-07T17:31:12;2.70;9.10
336;DHT22;156;48.738;9.228;2022-12-07T17:33:39;2.60;9.70
336;DHT22;156;48.738;9.228;2022-12-07T17:36:11;2.60;10.70
336;DHT22;156;48.738;9.228;2022-12-07T17:38:39;2.70;10.90
336;DHT22;156;48.738;9.228;2022-12-07T17:41:10;2.80;9.20
336;DHT22;156;48.738;9.228;2022-12-07T17:43:37;2.70;7.60
336;DHT22;156;48.738;9.228;2022-12-07T17:46:08;2.70;9.80
336;DHT22;156;48.738;9.228;2022-12-07T17:48:35;2.80;9.20
336;DHT22;156;48.738;9.228;2022-12-07T17:51:02;2.70;7.80